OCTOBER,1ST 2022

MET REPORT SMJP 011800Z WIND RWY 11 TDZ 060/6KT VIS RWY 11 TDZ 10KM END 10KM CLD RWY 11 SCT 3500FT T34 DP22 QNH 1011HPA QFE RWY 11 1009HPA TREND NOSIG=

 

METAR SMJP 011800Z 06006KT 9999 FEW020CB SCT035 34/21 Q1011 NOSIG=

METAR SMZO 011800Z 09008KT 9999 VCSH SCT030 32/22 Q1011 NOSIG=

METAR SMNI 011800Z 03010KT 9999 FEW018 FEW020CB 31/24 Q1011=